sensor_id;sensor_type;location;lat;lon;timestamp;P1;durP1;ratioP1;P2;durP2;ratioP2
58876;SDS011;44659;47.002;9.536;2023-12-20T00:01:26;8.00;;;5.07;;
58876;SDS011;44659;47.002;9.536;2023-12-20T00:03:52;9.05;;;5.30;;
58876;SDS011;44659;47.002;9.536;2023-12-20T00:06:17;8.07;;;4.80;;
58876;SDS011;44659;47.002;9.536;2023-12-20T00:08:43;8.70;;;5.10;;
58876;SDS011;44659;47.002;9.536;2023-12-20T00:11:09;9.07;;;5.45;;
58876;SDS011;44659;47.002;9.536;2023-12-20T00:13:35;8.35;;;5.05;;
58876;SDS011;44659;47.002;9.536;2023-12-20T00:16:00;8.57;;;5.25;;
58876;SDS011;44659;47.002;9.536;2023-12-20T00:18:26;13.50;;;5.10;;
58876;SDS011;44659;47.002;9.536;2023-12-20T00:20:52;9.55;;;5.68;;
58876;SDS011;44659;47.002;9.536;2023-12-20T00:23:17;10.35;;;5.28;;
58876;SDS011;44659;47.002;9.536;2023-12-20T00:25:43;8.10;;;4.45;;
58876;SDS011;44659;47.002;9.536;2023-12-20T00:28:09;8.80;;;5.13;;
58876;SDS011;44659;47.002;9.536;2023-12-20T00:30:35;8.00;;;5.28;;
58876;SDS011;44659;47.002;9.536;2023-12-20T00:33:01;7.80;;;5.32;;
58876;SDS011;44659;47.002;9.536;2023-12-20T00:35:27;7.88;;;5.07;;
58876;SDS011;44659;47.002;9.536;2023-12-20T00:37:53;8.50;;;5.30;;
58876;SDS011;44659;47.002;9.536;2023-12-20T00:40:19;8.73;;;5.75;;
58876;SDS011;44659;47.002;9.536;2023-12-20T00:42:45;8.93;;;5.28;;
58876;SDS011;44659;47.002;9.536;2023-12-20T00:45:12;8.25;;;5.00;;
58876;SDS011;44659;47.002;9.536;2023-12-20T00:47:38;10.40;;;5.68;;
58876;SDS011;44659;47.002;9.536;2023-12-20T00:50:04;10.38;;;5.43;;
58876;SDS011;44659;47.002;9.536;2023-12-20T00:52:30;7.85;;;4.78;;
58876;SDS011;44659;47.002;9.536;2023-12-20T00:54:55;7.60;;;4.30;;
58876;SDS011;44659;47.002;9.536;2023-12-20T00:57:21;7.03;;;4.18;;
58876;SDS011;44659;47.002;9.536;2023-12-20T00:59:47;9.07;;;4.63;;
58876;SDS011;44659;47.002;9.536;2023-12-20T01:02:13;6.95;;;4.13;;
58876;SDS011;44659;47.002;9.536;2023-12-20T01:04:38;7.55;;;4.50;;
58876;SDS011;44659;47.002;9.536;2023-12-20T01:07:04;8.23;;;4.60;;
58876;SDS011;44659;47.002;9.536;2023-12-20T01:09:30;8.85;;;3.80;;
58876;SDS011;44659;47.002;9.536;2023-12-20T01:11:55;7.38;;;4.28;;
58876;SDS011;44659;47.002;9.536;2023-12-20T01:14:21;7.93;;;4.68;;
58876;SDS011;44659;47.002;9.536;2023-12-20T01:16:47;8.30;;;4.60;;
58876;SDS011;44659;47.002;9.536;2023-12-20T01:19:13;8.10;;;4.68;;
58876;SDS011;44659;47.002;9.536;2023-12-20T01:21:39;8.05;;;4.90;;
58876;SDS011;44659;47.002;9.536;2023-12-20T01:24:05;10.98;;;4.88;;
58876;SDS011;44659;47.002;9.536;2023-12-20T01:26:31;9.60;;;4.90;;
58876;SDS011;44659;47.002;9.536;2023-12-20T01:28:57;8.60;;;4.65;;
58876;SDS011;44659;47.002;9.536;2023-12-20T01:31:22;6.95;;;4.30;;
58876;SDS011;44659;47.002;9.536;2023-12-20T01:33:48;10.13;;;4.70;;
58876;SDS011;44659;47.002;9.536;2023-12-20T01:36:14;8.80;;;4.85;;
58876;SDS011;44659;47.002;9.536;2023-12-20T01:38:39;9.75;;;4.65;;
58876;SDS011;44659;47.002;9.536;2023-12-20T01:41:05;8.48;;;4.85;;
58876;SDS011;44659;47.002;9.536;2023-12-20T01:43:31;7.82;;;4.40;;
58876;SDS011;44659;47.002;9.536;2023-12-20T01:45:59;7.13;;;4.07;;
58876;SDS011;44659;47.002;9.536;2023-12-20T01:48:25;7.50;;;4.18;;
58876;SDS011;44659;47.002;9.536;2023-12-20T01:50:53;9.05;;;4.63;;
58876;SDS011;44659;47.002;9.536;2023-12-20T01:53:20;8.65;;;4.53;;
58876;SDS011;44659;47.002;9.536;2023-12-20T01:55:48;7.80;;;4.40;;
58876;SDS011;44659;47.002;9.536;2023-12-20T01:58:17;7.05;;;4.45;;
58876;SDS011;44659;47.002;9.536;2023-12-20T02:00:44;12.40;;;4.80;;
58876;SDS011;44659;47.002;9.536;2023-12-20T02:03:10;7.93;;;4.40;;
58876;SDS011;44659;47.002;9.536;2023-12-20T02:05:36;15.48;;;5.22;;
58876;SDS011;44659;47.002;9.536;2023-12-20T02:08:04;11.23;;;5.38;;
58876;SDS011;44659;47.002;9.536;2023-12-20T02:10:31;9.02;;;5.13;;
58876;SDS011;44659;47.002;9.536;2023-12-20T02:12:57;9.27;;;5.22;;
58876;SDS011;44659;47.002;9.536;2023-12-20T02:15:23;8.05;;;4.75;;
58876;SDS011;44659;47.002;9.536;2023-12-20T02:17:49;8.07;;;5.00;;
58876;SDS011;44659;47.002;9.536;2023-12-20T02:20:15;11.25;;;6.28;;
58876;SDS011;44659;47.002;9.536;2023-12-20T02:22:41;9.60;;;5.32;;
58876;SDS011;44659;47.002;9.536;2023-12-20T02:25:07;8.13;;;5.18;;
58876;SDS011;44659;47.002;9.536;2023-12-20T02:27:33;11.10;;;5.43;;
58876;SDS011;44659;47.002;9.536;2023-12-20T02:30:00;9.93;;;5.18;;
58876;SDS011;44659;47.002;9.536;2023-12-20T02:32:26;9.50;;;5.60;;
58876;SDS011;44659;47.002;9.536;2023-12-20T02:34:51;9.48;;;5.72;;
58876;SDS011;44659;47.002;9.536;2023-12-20T02:37:17;10.90;;;5.60;;
58876;SDS011;44659;47.002;9.536;2023-12-20T02:39:43;10.60;;;5.78;;
58876;SDS011;44659;47.002;9.536;2023-12-20T02:42:08;9.25;;;5.28;;
58876;SDS011;44659;47.002;9.536;2023-12-20T02:44:34;10.95;;;5.88;;
58876;SDS011;44659;47.002;9.536;2023-12-20T02:47:00;11.50;;;5.72;;
58876;SDS011;44659;47.002;9.536;2023-12-20T02:49:25;9.55;;;5.78;;
58876;SDS011;44659;47.002;9.536;2023-12-20T02:51:51;9.63;;;5.75;;
58876;SDS011;44659;47.002;9.536;2023-12-20T02:54:17;9.50;;;6.22;;
58876;SDS011;44659;47.002;9.536;2023-12-20T02:56:42;9.45;;;5.53;;
58876;SDS011;44659;47.002;9.536;2023-12-20T02:59:08;9.30;;;5.53;;
58876;SDS011;44659;47.002;9.536;2023-12-20T03:01:34;10.82;;;5.47;;
58876;SDS011;44659;47.002;9.536;2023-12-20T03:04:00;10.10;;;5.70;;
58876;SDS011;44659;47.002;9.536;2023-12-20T03:06:26;8.65;;;5.00;;
58876;SDS011;44659;47.002;9.536;2023-12-20T03:08:52;12.00;;;5.95;;
58876;SDS011;44659;47.002;9.536;2023-12-20T03:11:18;11.20;;;6.05;;
58876;SDS011;44659;47.002;9.536;2023-12-20T03:13:43;13.48;;;5.75;;
58876;SDS011;44659;47.002;9.536;2023-12-20T03:16:12;11.23;;;6.03;;
58876;SDS011;44659;47.002;9.536;2023-12-20T03:18:39;9.23;;;6.03;;
58876;SDS011;44659;47.002;9.536;2023-12-20T03:21:05;10.73;;;6.25;;
58876;SDS011;44659;47.002;9.536;2023-12-20T03:23:31;8.48;;;5.70;;
58876;SDS011;44659;47.002;9.536;2023-12-20T03:25:58;13.75;;;6.32;;
58876;SDS011;44659;47.002;9.536;2023-12-20T03:28:25;9.27;;;5.80;;
58876;SDS011;44659;47.002;9.536;2023-12-20T03:30:52;14.30;;;6.32;;
58876;SDS011;44659;47.002;9.536;2023-12-20T03:33:17;10.55;;;6.55;;
58876;SDS011;44659;47.002;9.536;2023-12-20T03:35:43;10.70;;;5.90;;
58876;SDS011;44659;47.002;9.536;2023-12-20T03:38:08;12.48;;;5.95;;
58876;SDS011;44659;47.002;9.536;2023-12-20T03:40:34;9.25;;;5.57;;
58876;SDS011;44659;47.002;9.536;2023-12-20T03:43:00;9.52;;;6.00;;
58876;SDS011;44659;47.002;9.536;2023-12-20T03:45:26;8.48;;;5.43;;
58876;SDS011;44659;47.002;9.536;2023-12-20T03:47:51;13.35;;;5.70;;
58876;SDS011;44659;47.002;9.536;2023-12-20T03:50:23;9.18;;;5.90;;
58876;SDS011;44659;47.002;9.536;2023-12-20T03:52:48;15.30;;;5.38;;
58876;SDS011;44659;47.002;9.536;2023-12-20T03:55:15;11.95;;;6.00;;
58876;SDS011;44659;47.002;9.536;2023-12-20T03:57:41;8.48;;;5.10;;
58876;SDS011;44659;47.002;9.536;2023-12-20T04:00:07;10.95;;;6.28;;
58876;SDS011;44659;47.002;9.536;2023-12-20T04:02:39;9.82;;;5.55;;
58876;SDS011;44659;47.002;9.536;2023-12-20T04:05:06;9.77;;;5.90;;
58876;SDS011;44659;47.002;9.536;2023-12-20T04:07:32;14.07;;;5.78;;
58876;SDS011;44659;47.002;9.536;2023-12-20T04:09:58;9.93;;;5.85;;
58876;SDS011;44659;47.002;9.536;2023-12-20T04:12:24;9.63;;;5.97;;
58876;SDS011;44659;47.002;9.536;2023-12-20T04:14:50;9.90;;;5.72;;
58876;SDS011;44659;47.002;9.536;2023-12-20T04:17:15;10.18;;;6.25;;
58876;SDS011;44659;47.002;9.536;2023-12-20T04:19:42;9.63;;;5.75;;
58876;SDS011;44659;47.002;9.536;2023-12-20T04:22:07;8.95;;;5.60;;
58876;SDS011;44659;47.002;9.536;2023-12-20T04:24:33;9.00;;;5.90;;
58876;SDS011;44659;47.002;9.536;2023-12-20T04:26:59;8.70;;;5.45;;
58876;SDS011;44659;47.002;9.536;2023-12-20T04:29:25;9.30;;;5.57;;
58876;SDS011;44659;47.002;9.536;2023-12-20T04:31:50;8.65;;;5.18;;
58876;SDS011;44659;47.002;9.536;2023-12-20T04:34:19;9.02;;;5.13;;
58876;SDS011;44659;47.002;9.536;2023-12-20T04:36:45;9.77;;;5.80;;
58876;SDS011;44659;47.002;9.536;2023-12-20T04:39:12;9.45;;;5.70;;
58876;SDS011;44659;47.002;9.536;2023-12-20T04:41:39;10.77;;;5.50;;
58876;SDS011;44659;47.002;9.536;2023-12-20T04:44:05;9.65;;;5.90;;
58876;SDS011;44659;47.002;9.536;2023-12-20T04:46:31;8.98;;;5.50;;
58876;SDS011;44659;47.002;9.536;2023-12-20T04:48:57;11.57;;;5.88;;
58876;SDS011;44659;47.002;9.536;2023-12-20T04:51:23;10.48;;;6.32;;
58876;SDS011;44659;47.002;9.536;2023-12-20T04:53:49;10.55;;;5.72;;
58876;SDS011;44659;47.002;9.536;2023-12-20T04:56:14;11.32;;;6.40;;
58876;SDS011;44659;47.002;9.536;2023-12-20T04:58:40;10.38;;;5.80;;
58876;SDS011;44659;47.002;9.536;2023-12-20T05:01:06;11.40;;;6.07;;
58876;SDS011;44659;47.002;9.536;2023-12-20T05:03:33;9.35;;;5.50;;
58876;SDS011;44659;47.002;9.536;2023-12-20T05:05:59;11.82;;;7.05;;
58876;SDS011;44659;47.002;9.536;2023-12-20T05:08:24;10.10;;;6.50;;
58876;SDS011;44659;47.002;9.536;2023-12-20T05:10:51;9.48;;;5.45;;
58876;SDS011;44659;47.002;9.536;2023-12-20T05:13:19;10.90;;;6.85;;
58876;SDS011;44659;47.002;9.536;2023-12-20T05:15:46;12.25;;;6.45;;
58876;SDS011;44659;47.002;9.536;2023-12-20T05:18:12;10.35;;;6.45;;
58876;SDS011;44659;47.002;9.536;2023-12-20T05:20:38;11.23;;;6.28;;
58876;SDS011;44659;47.002;9.536;2023-12-20T05:23:04;9.48;;;6.32;;
58876;SDS011;44659;47.002;9.536;2023-12-20T05:25:30;12.40;;;6.13;;
58876;SDS011;44659;47.002;9.536;2023-12-20T05:27:55;11.38;;;6.50;;
58876;SDS011;44659;47.002;9.536;2023-12-20T05:30:21;9.23;;;6.07;;
58876;SDS011;44659;47.002;9.536;2023-12-20T05:32:47;13.70;;;6.80;;
58876;SDS011;44659;47.002;9.536;2023-12-20T05:35:13;9.00;;;5.68;;
58876;SDS011;44659;47.002;9.536;2023-12-20T05:37:38;9.45;;;6.05;;
58876;SDS011;44659;47.002;9.536;2023-12-20T05:40:07;10.05;;;6.35;;
58876;SDS011;44659;47.002;9.536;2023-12-20T05:42:37;9.10;;;5.78;;
58876;SDS011;44659;47.002;9.536;2023-12-20T05:45:03;9.10;;;5.57;;
58876;SDS011;44659;47.002;9.536;2023-12-20T05:47:30;9.27;;;5.88;;
58876;SDS011;44659;47.002;9.536;2023-12-20T05:49:55;10.45;;;5.50;;
58876;SDS011;44659;47.002;9.536;2023-12-20T05:52:21;10.32;;;5.15;;
58876;SDS011;44659;47.002;9.536;2023-12-20T05:54:47;10.50;;;5.10;;
58876;SDS011;44659;47.002;9.536;2023-12-20T05:57:12;9.23;;;5.20;;
58876;SDS011;44659;47.002;9.536;2023-12-20T05:59:38;8.98;;;5.50;;
58876;SDS011;44659;47.002;9.536;2023-12-20T06:02:04;7.47;;;4.70;;
58876;SDS011;44659;47.002;9.536;2023-12-20T06:04:30;7.85;;;4.85;;
58876;SDS011;44659;47.002;9.536;2023-12-20T06:06:56;8.88;;;4.85;;
58876;SDS011;44659;47.002;9.536;2023-12-20T06:09:22;10.18;;;4.70;;
58876;SDS011;44659;47.002;9.536;2023-12-20T06:11:48;7.40;;;4.45;;
58876;SDS011;44659;47.002;9.536;2023-12-20T06:14:14;7.22;;;4.43;;
58876;SDS011;44659;47.002;9.536;2023-12-20T06:16:40;6.75;;;3.75;;
58876;SDS011;44659;47.002;9.536;2023-12-20T06:19:05;6.82;;;4.38;;
58876;SDS011;44659;47.002;9.536;2023-12-20T06:21:31;6.95;;;4.05;;
58876;SDS011;44659;47.002;9.536;2023-12-20T06:23:58;7.38;;;4.10;;
58876;SDS011;44659;47.002;9.536;2023-12-20T06:26:25;8.32;;;4.88;;
58876;SDS011;44659;47.002;9.536;2023-12-20T06:28:50;7.13;;;3.80;;
58876;SDS011;44659;47.002;9.536;2023-12-20T06:31:16;6.68;;;3.85;;
58876;SDS011;44659;47.002;9.536;2023-12-20T06:33:43;7.75;;;3.58;;
58876;SDS011;44659;47.002;9.536;2023-12-20T06:36:12;7.50;;;4.05;;
58876;SDS011;44659;47.002;9.536;2023-12-20T06:38:39;6.78;;;3.40;;
58876;SDS011;44659;47.002;9.536;2023-12-20T06:41:05;6.57;;;3.83;;
58876;SDS011;44659;47.002;9.536;2023-12-20T06:43:31;6.72;;;3.80;;
58876;SDS011;44659;47.002;9.536;2023-12-20T06:45:57;6.88;;;3.58;;
58876;SDS011;44659;47.002;9.536;2023-12-20T06:48:23;5.43;;;3.35;;
58876;SDS011;44659;47.002;9.536;2023-12-20T06:50:49;7.03;;;3.30;;
58876;SDS011;44659;47.002;9.536;2023-12-20T06:53:15;6.22;;;3.70;;
58876;SDS011;44659;47.002;9.536;2023-12-20T06:55:40;6.18;;;3.60;;
58876;SDS011;44659;47.002;9.536;2023-12-20T06:58:06;9.68;;;3.63;;
58876;SDS011;44659;47.002;9.536;2023-12-20T07:00:32;6.55;;;3.40;;
58876;SDS011;44659;47.002;9.536;2023-12-20T07:02:58;7.25;;;3.38;;
58876;SDS011;44659;47.002;9.536;2023-12-20T07:05:24;6.78;;;4.20;;
58876;SDS011;44659;47.002;9.536;2023-12-20T07:07:50;7.93;;;3.47;;
58876;SDS011;44659;47.002;9.536;2023-12-20T07:10:16;6.03;;;3.60;;
58876;SDS011;44659;47.002;9.536;2023-12-20T07:12:41;8.38;;;3.85;;
58876;SDS011;44659;47.002;9.536;2023-12-20T07:15:07;6.25;;;3.60;;
58876;SDS011;44659;47.002;9.536;2023-12-20T07:17:33;8.18;;;4.07;;
58876;SDS011;44659;47.002;9.536;2023-12-20T07:19:59;9.45;;;4.40;;
58876;SDS011;44659;47.002;9.536;2023-12-20T07:22:31;6.63;;;3.80;;
58876;SDS011;44659;47.002;9.536;2023-12-20T07:24:59;8.10;;;4.72;;
58876;SDS011;44659;47.002;9.536;2023-12-20T07:27:25;6.82;;;4.30;;
58876;SDS011;44659;47.002;9.536;2023-12-20T07:29:51;8.10;;;4.32;;
58876;SDS011;44659;47.002;9.536;2023-12-20T07:32:17;7.95;;;3.63;;
58876;SDS011;44659;47.002;9.536;2023-12-20T07:34:43;7.05;;;4.13;;
58876;SDS011;44659;47.002;9.536;2023-12-20T07:37:08;11.05;;;4.40;;
58876;SDS011;44659;47.002;9.536;2023-12-20T07:39:41;8.70;;;4.20;;
58876;SDS011;44659;47.002;9.536;2023-12-20T07:42:07;6.47;;;4.03;;
58876;SDS011;44659;47.002;9.536;2023-12-20T07:44:34;6.10;;;3.45;;
58876;SDS011;44659;47.002;9.536;2023-12-20T07:47:03;7.93;;;3.70;;
58876;SDS011;44659;47.002;9.536;2023-12-20T07:49:30;10.27;;;4.15;;
58876;SDS011;44659;47.002;9.536;2023-12-20T07:51:56;8.48;;;3.88;;
58876;SDS011;44659;47.002;9.536;2023-12-20T07:54:22;7.93;;;3.78;;
58876;SDS011;44659;47.002;9.536;2023-12-20T07:56:48;7.50;;;4.38;;
58876;SDS011;44659;47.002;9.536;2023-12-20T07:59:14;7.28;;;4.43;;
58876;SDS011;44659;47.002;9.536;2023-12-20T08:01:40;6.80;;;4.20;;
58876;SDS011;44659;47.002;9.536;2023-12-20T08:04:06;7.90;;;4.47;;
58876;SDS011;44659;47.002;9.536;2023-12-20T08:06:31;9.80;;;4.22;;
58876;SDS011;44659;47.002;9.536;2023-12-20T08:08:57;7.82;;;4.72;;
58876;SDS011;44659;47.002;9.536;2023-12-20T08:11:22;8.20;;;4.68;;
58876;SDS011;44659;47.002;9.536;2023-12-20T08:13:48;8.95;;;4.57;;
58876;SDS011;44659;47.002;9.536;2023-12-20T08:16:14;8.18;;;4.57;;
58876;SDS011;44659;47.002;9.536;2023-12-20T08:18:40;9.07;;;4.57;;
58876;SDS011;44659;47.002;9.536;2023-12-20T08:21:07;8.02;;;4.75;;
58876;SDS011;44659;47.002;9.536;2023-12-20T08:23:36;7.65;;;4.97;;
58876;SDS011;44659;47.002;9.536;2023-12-20T08:26:05;9.07;;;5.85;;
58876;SDS011;44659;47.002;9.536;2023-12-20T08:28:32;11.18;;;5.88;;
58876;SDS011;44659;47.002;9.536;2023-12-20T08:30:58;12.18;;;6.20;;
58876;SDS011;44659;47.002;9.536;2023-12-20T08:33:24;11.30;;;5.55;;
58876;SDS011;44659;47.002;9.536;2023-12-20T08:35:49;9.85;;;5.53;;
58876;SDS011;44659;47.002;9.536;2023-12-20T08:38:15;8.98;;;5.50;;
58876;SDS011;44659;47.002;9.536;2023-12-20T08:40:41;11.20;;;5.80;;
58876;SDS011;44659;47.002;9.536;2023-12-20T08:43:07;11.90;;;5.93;;
58876;SDS011;44659;47.002;9.536;2023-12-20T08:45:33;63.50;;;28.77;;
58876;SDS011;44659;47.002;9.536;2023-12-20T08:47:58;13.10;;;7.55;;
58876;SDS011;44659;47.002;9.536;2023-12-20T08:50:25;13.27;;;6.82;;
58876;SDS011;44659;47.002;9.536;2023-12-20T08:52:50;12.20;;;7.05;;
58876;SDS011;44659;47.002;9.536;2023-12-20T08:55:16;10.80;;;6.90;;
58876;SDS011;44659;47.002;9.536;2023-12-20T08:57:43;12.95;;;8.25;;
58876;SDS011;44659;47.002;9.536;2023-12-20T09:00:09;16.13;;;10.20;;
58876;SDS011;44659;47.002;9.536;2023-12-20T09:02:35;17.27;;;8.85;;
58876;SDS011;44659;47.002;9.536;2023-12-20T09:05:01;13.35;;;8.18;;
58876;SDS011;44659;47.002;9.536;2023-12-20T09:07:28;16.25;;;8.93;;
58876;SDS011;44659;47.002;9.536;2023-12-20T09:09:56;14.82;;;7.40;;
58876;SDS011;44659;47.002;9.536;2023-12-20T09:12:21;11.13;;;6.43;;
58876;SDS011;44659;47.002;9.536;2023-12-20T09:14:47;13.52;;;6.38;;
58876;SDS011;44659;47.002;9.536;2023-12-20T09:17:14;11.68;;;6.57;;
58876;SDS011;44659;47.002;9.536;2023-12-20T09:19:41;10.77;;;6.70;;
58876;SDS011;44659;47.002;9.536;2023-12-20T09:22:09;12.20;;;6.55;;
58876;SDS011;44659;47.002;9.536;2023-12-20T09:24:34;11.23;;;6.18;;
58876;SDS011;44659;47.002;9.536;2023-12-20T09:27:00;10.30;;;5.80;;
58876;SDS011;44659;47.002;9.536;2023-12-20T09:29:26;10.65;;;5.13;;
58876;SDS011;44659;47.002;9.536;2023-12-20T09:31:52;9.98;;;5.97;;
58876;SDS011;44659;47.002;9.536;2023-12-20T09:34:17;9.73;;;5.05;;
58876;SDS011;44659;47.002;9.536;2023-12-20T09:36:43;7.93;;;4.57;;
58876;SDS011;44659;47.002;9.536;2023-12-20T09:39:16;7.13;;;3.83;;
58876;SDS011;44659;47.002;9.536;2023-12-20T09:44:29;8.57;;;3.92;;
58876;SDS011;44659;47.002;9.536;2023-12-20T09:46:55;6.68;;;4.10;;
58876;SDS011;44659;47.002;9.536;2023-12-20T09:49:22;7.88;;;4.05;;
58876;SDS011;44659;47.002;9.536;2023-12-20T09:51:49;10.13;;;4.75;;
58876;SDS011;44659;47.002;9.536;2023-12-20T09:54:17;6.93;;;4.25;;
58876;SDS011;44659;47.002;9.536;2023-12-20T09:56:46;10.27;;;5.03;;
58876;SDS011;44659;47.002;9.536;2023-12-20T09:59:12;10.38;;;4.65;;
58876;SDS011;44659;47.002;9.536;2023-12-20T10:01:42;10.50;;;5.78;;
58876;SDS011;44659;47.002;9.536;2023-12-20T10:04:08;10.50;;;5.28;;
58876;SDS011;44659;47.002;9.536;2023-12-20T10:06:43;9.70;;;5.07;;
58876;SDS011;44659;47.002;9.536;2023-12-20T10:09:10;9.45;;;5.10;;
58876;SDS011;44659;47.002;9.536;2023-12-20T10:11:36;7.57;;;4.50;;
58876;SDS011;44659;47.002;9.536;2023-12-20T10:14:03;9.38;;;5.05;;
58876;SDS011;44659;47.002;9.536;2023-12-20T10:16:30;9.85;;;4.95;;
58876;SDS011;44659;47.002;9.536;2023-12-20T10:18:56;6.80;;;4.13;;
58876;SDS011;44659;47.002;9.536;2023-12-20T10:21:22;9.23;;;4.65;;
58876;SDS011;44659;47.002;9.536;2023-12-20T10:23:49;7.45;;;4.65;;
58876;SDS011;44659;47.002;9.536;2023-12-20T10:26:22;8.10;;;4.22;;
58876;SDS011;44659;47.002;9.536;2023-12-20T10:28:55;6.45;;;4.25;;
58876;SDS011;44659;47.002;9.536;2023-12-20T10:31:29;7.45;;;4.03;;
58876;SDS011;44659;47.002;9.536;2023-12-20T10:33:56;5.85;;;3.67;;
58876;SDS011;44659;47.002;9.536;2023-12-20T10:36:24;6.50;;;3.85;;
58876;SDS011;44659;47.002;9.536;2023-12-20T10:38:52;6.47;;;3.70;;
58876;SDS011;44659;47.002;9.536;2023-12-20T10:41:19;8.38;;;3.50;;
58876;SDS011;44659;47.002;9.536;2023-12-20T10:43:59;7.40;;;3.67;;
58876;SDS011;44659;47.002;9.536;2023-12-20T10:46:29;6.78;;;3.20;;
58876;SDS011;44659;47.002;9.536;2023-12-20T10:48:55;6.90;;;3.70;;
58876;SDS011;44659;47.002;9.536;2023-12-20T10:51:22;8.02;;;3.13;;
58876;SDS011;44659;47.002;9.536;2023-12-20T10:53:52;5.82;;;3.17;;
58876;SDS011;44659;47.002;9.536;2023-12-20T10:56:18;5.93;;;2.80;;
58876;SDS011;44659;47.002;9.536;2023-12-20T10:58:46;6.00;;;2.78;;
58876;SDS011;44659;47.002;9.536;2023-12-20T11:01:13;5.70;;;3.20;;
58876;SDS011;44659;47.002;9.536;2023-12-20T11:03:50;5.75;;;3.08;;
58876;SDS011;44659;47.002;9.536;2023-12-20T11:06:25;6.10;;;3.20;;
58876;SDS011;44659;47.002;9.536;2023-12-20T11:14:46;5.55;;;2.70;;
58876;SDS011;44659;47.002;9.536;2023-12-20T11:17:14;5.25;;;2.78;;
58876;SDS011;44659;47.002;9.536;2023-12-20T11:20:24;5.50;;;2.60;;
58876;SDS011;44659;47.002;9.536;2023-12-20T11:22:31;5.20;;;2.72;;
58876;SDS011;44659;47.002;9.536;2023-12-20T11:25:07;4.97;;;2.65;;
58876;SDS011;44659;47.002;9.536;2023-12-20T11:27:35;4.88;;;2.60;;
58876;SDS011;44659;47.002;9.536;2023-12-20T11:30:03;4.80;;;2.60;;
58876;SDS011;44659;47.002;9.536;2023-12-20T11:32:34;63.33;;;5.57;;
58876;SDS011;44659;47.002;9.536;2023-12-20T11:35:01;4.47;;;2.60;;
58876;SDS011;44659;47.002;9.536;2023-12-20T11:37:42;6.13;;;2.30;;
58876;SDS011;44659;47.002;9.536;2023-12-20T11:40:11;4.85;;;2.53;;
58876;SDS011;44659;47.002;9.536;2023-12-20T11:42:44;5.93;;;2.78;;
58876;SDS011;44659;47.002;9.536;2023-12-20T11:45:11;6.40;;;2.63;;
58876;SDS011;44659;47.002;9.536;2023-12-20T11:47:48;4.55;;;2.47;;
58876;SDS011;44659;47.002;9.536;2023-12-20T11:50:15;5.72;;;2.58;;
58876;SDS011;44659;47.002;9.536;2023-12-20T11:52:44;4.75;;;2.60;;
58876;SDS011;44659;47.002;9.536;2023-12-20T11:55:10;4.40;;;2.38;;
58876;SDS011;44659;47.002;9.536;2023-12-20T11:57:36;4.45;;;2.25;;
58876;SDS011;44659;47.002;9.536;2023-12-20T12:00:02;5.40;;;2.22;;
58876;SDS011;44659;47.002;9.536;2023-12-20T12:02:29;4.82;;;2.35;;
58876;SDS011;44659;47.002;9.536;2023-12-20T12:04:56;4.28;;;2.10;;
58876;SDS011;44659;47.002;9.536;2023-12-20T12:07:23;4.13;;;2.47;;
58876;SDS011;44659;47.002;9.536;2023-12-20T12:09:50;4.30;;;2.20;;
58876;SDS011;44659;47.002;9.536;2023-12-20T12:12:16;5.25;;;2.78;;
58876;SDS011;44659;47.002;9.536;2023-12-20T12:14:46;4.93;;;2.10;;
58876;SDS011;44659;47.002;9.536;2023-12-20T12:17:15;6.07;;;2.30;;
58876;SDS011;44659;47.002;9.536;2023-12-20T12:19:41;6.43;;;2.65;;
58876;SDS011;44659;47.002;9.536;2023-12-20T12:22:08;6.30;;;2.53;;
58876;SDS011;44659;47.002;9.536;2023-12-20T12:24:38;4.28;;;2.17;;
58876;SDS011;44659;47.002;9.536;2023-12-20T12:27:05;4.18;;;1.90;;
58876;SDS011;44659;47.002;9.536;2023-12-20T12:29:32;4.85;;;2.28;;
58876;SDS011;44659;47.002;9.536;2023-12-20T12:31:59;4.60;;;2.35;;
58876;SDS011;44659;47.002;9.536;2023-12-20T12:34:27;4.15;;;2.22;;
58876;SDS011;44659;47.002;9.536;2023-12-20T12:36:53;3.85;;;2.15;;
58876;SDS011;44659;47.002;9.536;2023-12-20T12:39:19;6.93;;;2.42;;
58876;SDS011;44659;47.002;9.536;2023-12-20T12:41:45;4.47;;;2.38;;
58876;SDS011;44659;47.002;9.536;2023-12-20T12:44:11;4.22;;;2.03;;
58876;SDS011;44659;47.002;9.536;2023-12-20T12:46:37;4.38;;;2.00;;
58876;SDS011;44659;47.002;9.536;2023-12-20T12:49:02;4.13;;;2.00;;
58876;SDS011;44659;47.002;9.536;2023-12-20T12:51:29;4.38;;;2.30;;
58876;SDS011;44659;47.002;9.536;2023-12-20T12:53:54;5.20;;;2.35;;
58876;SDS011;44659;47.002;9.536;2023-12-20T12:56:20;4.75;;;2.72;;
58876;SDS011;44659;47.002;9.536;2023-12-20T12:58:47;5.95;;;3.65;;
58876;SDS011;44659;47.002;9.536;2023-12-20T13:01:13;6.93;;;3.30;;
58876;SDS011;44659;47.002;9.536;2023-12-20T13:03:39;4.65;;;2.30;;
58876;SDS011;44659;47.002;9.536;2023-12-20T13:06:05;4.53;;;2.15;;
58876;SDS011;44659;47.002;9.536;2023-12-20T13:08:33;4.60;;;2.03;;
58876;SDS011;44659;47.002;9.536;2023-12-20T13:10:59;3.85;;;2.13;;
58876;SDS011;44659;47.002;9.536;2023-12-20T13:13:29;4.10;;;1.98;;
58876;SDS011;44659;47.002;9.536;2023-12-20T13:15:55;4.07;;;1.88;;
58876;SDS011;44659;47.002;9.536;2023-12-20T13:18:21;5.60;;;1.85;;
58876;SDS011;44659;47.002;9.536;2023-12-20T13:20:47;3.30;;;1.83;;
58876;SDS011;44659;47.002;9.536;2023-12-20T13:23:13;3.30;;;1.85;;
58876;SDS011;44659;47.002;9.536;2023-12-20T13:25:39;4.32;;;2.40;;
58876;SDS011;44659;47.002;9.536;2023-12-20T13:28:06;4.30;;;2.25;;
58876;SDS011;44659;47.002;9.536;2023-12-20T13:30:31;4.55;;;2.30;;
58876;SDS011;44659;47.002;9.536;2023-12-20T13:32:57;4.00;;;2.20;;
58876;SDS011;44659;47.002;9.536;2023-12-20T13:35:23;3.65;;;2.15;;
58876;SDS011;44659;47.002;9.536;2023-12-20T13:37:48;3.67;;;2.03;;
58876;SDS011;44659;47.002;9.536;2023-12-20T13:40:14;4.72;;;2.10;;
58876;SDS011;44659;47.002;9.536;2023-12-20T13:42:40;4.68;;;2.10;;
58876;SDS011;44659;47.002;9.536;2023-12-20T13:45:06;3.95;;;2.20;;
58876;SDS011;44659;47.002;9.536;2023-12-20T13:47:33;3.13;;;1.58;;
58876;SDS011;44659;47.002;9.536;2023-12-20T13:50:00;3.85;;;1.80;;
58876;SDS011;44659;47.002;9.536;2023-12-20T13:52:26;3.40;;;1.65;;
58876;SDS011;44659;47.002;9.536;2023-12-20T13:54:52;3.33;;;1.70;;
58876;SDS011;44659;47.002;9.536;2023-12-20T13:57:17;3.03;;;1.70;;
58876;SDS011;44659;47.002;9.536;2023-12-20T13:59:43;3.38;;;1.80;;
58876;SDS011;44659;47.002;9.536;2023-12-20T14:02:10;3.25;;;1.60;;
58876;SDS011;44659;47.002;9.536;2023-12-20T14:04:35;5.25;;;2.13;;
58876;SDS011;44659;47.002;9.536;2023-12-20T14:07:01;4.05;;;1.92;;
58876;SDS011;44659;47.002;9.536;2023-12-20T14:09:28;3.58;;;1.70;;
58876;SDS011;44659;47.002;9.536;2023-12-20T14:11:53;4.15;;;2.30;;
58876;SDS011;44659;47.002;9.536;2023-12-20T14:14:20;4.55;;;2.33;;
58876;SDS011;44659;47.002;9.536;2023-12-20T14:16:45;4.28;;;2.50;;
58876;SDS011;44659;47.002;9.536;2023-12-20T14:19:11;4.10;;;1.90;;
58876;SDS011;44659;47.002;9.536;2023-12-20T14:21:37;2.55;;;1.27;;
58876;SDS011;44659;47.002;9.536;2023-12-20T14:24:03;2.70;;;1.35;;
58876;SDS011;44659;47.002;9.536;2023-12-20T14:26:29;2.75;;;0.90;;
58876;SDS011;44659;47.002;9.536;2023-12-20T14:28:56;1.60;;;0.90;;
58876;SDS011;44659;47.002;9.536;2023-12-20T14:31:22;1.65;;;0.90;;
58876;SDS011;44659;47.002;9.536;2023-12-20T14:33:49;2.10;;;0.85;;
58876;SDS011;44659;47.002;9.536;2023-12-20T14:36:18;1.70;;;0.80;;
58876;SDS011;44659;47.002;9.536;2023-12-20T14:38:45;2.08;;;0.90;;
58876;SDS011;44659;47.002;9.536;2023-12-20T14:41:15;1.52;;;0.80;;
58876;SDS011;44659;47.002;9.536;2023-12-20T14:43:42;1.33;;;0.70;;
58876;SDS011;44659;47.002;9.536;2023-12-20T14:46:08;1.45;;;0.90;;
58876;SDS011;44659;47.002;9.536;2023-12-20T14:48:33;2.60;;;0.90;;
58876;SDS011;44659;47.002;9.536;2023-12-20T14:50:59;3.15;;;1.40;;